sensor_id;sensor_type;location;lat;lon;timestamp;pressure;altitude;pressure_sealevel;temperature;humidity
5595;BME280;1003;48.002;7.788;2023-05-14T00:02:24;99402.44;;;9.73;100.00
5595;BME280;1003;48.002;7.788;2023-05-14T00:04:52;99398.31;;;9.69;100.00
5595;BME280;1003;48.002;7.788;2023-05-14T00:07:19;99392.44;;;9.61;100.00
5595;BME280;1003;48.002;7.788;2023-05-14T00:09:46;99396.66;;;9.54;100.00
5595;BME280;1003;48.002;7.788;2023-05-14T00:12:13;99396.66;;;9.50;100.00
5595;BME280;1003;48.002;7.788;2023-05-14T00:14:41;99390.78;;;9.52;100.00
5595;BME280;1003;48.002;7.788;2023-05-14T00:17:08;99389.13;;;9.51;100.00
5595;BME280;1003;48.002;7.788;2023-05-14T00:19:35;99387.44;;;9.58;100.00
5595;BME280;1003;48.002;7.788;2023-05-14T00:22:06;99398.31;;;9.61;100.00
5595;BME280;1003;48.002;7.788;2023-05-14T00:24:33;99393.28;;;9.64;100.00
5595;BME280;1003;48.002;7.788;2023-05-14T00:27:00;99385.78;;;9.51;100.00
5595;BME280;1003;48.002;7.788;2023-05-14T00:29:28;99375.78;;;9.38;100.00
5595;BME280;1003;48.002;7.788;2023-05-14T00:31:56;99375.78;;;9.29;100.00
5595;BME280;1003;48.002;7.788;2023-05-14T00:34:23;99379.16;;;9.28;100.00
5595;BME280;1003;48.002;7.788;2023-05-14T00:36:51;99374.97;;;9.29;100.00
5595;BME280;1003;48.002;7.788;2023-05-14T00:39:18;99373.28;;;9.34;100.00
5595;BME280;1003;48.002;7.788;2023-05-14T00:41:45;99373.25;;;9.46;100.00
5595;BME280;1003;48.002;7.788;2023-05-14T00:44:12;99374.91;;;9.52;100.00
5595;BME280;1003;48.002;7.788;2023-05-14T00:46:39;99367.38;;;9.56;100.00
5595;BME280;1003;48.002;7.788;2023-05-14T00:49:09;99364.84;;;9.58;100.00
5595;BME280;1003;48.002;7.788;2023-05-14T00:51:36;99359.00;;;9.56;100.00
5595;BME280;1003;48.002;7.788;2023-05-14T00:54:04;99356.50;;;9.60;100.00
5595;BME280;1003;48.002;7.788;2023-05-14T00:56:33;99348.13;;;9.61;100.00
5595;BME280;1003;48.002;7.788;2023-05-14T00:59:01;99342.25;;;9.67;100.00
5595;BME280;1003;48.002;7.788;2023-05-14T01:01:28;99347.28;;;9.62;100.00
5595;BME280;1003;48.002;7.788;2023-05-14T01:03:56;99343.03;;;9.77;100.00
5595;BME280;1003;48.002;7.788;2023-05-14T01:06:35;99341.44;;;9.63;100.00
5595;BME280;1003;48.002;7.788;2023-05-14T01:09:16;99332.28;;;9.47;100.00
5595;BME280;1003;48.002;7.788;2023-05-14T01:11:54;99328.13;;;9.40;100.00
5595;BME280;1003;48.002;7.788;2023-05-14T01:14:33;99326.50;;;9.13;100.00
5595;BME280;1003;48.002;7.788;2023-05-14T01:17:03;99335.72;;;9.00;100.00
5595;BME280;1003;48.002;7.788;2023-05-14T01:19:39;99329.88;;;8.90;100.00
5595;BME280;1003;48.002;7.788;2023-05-14T01:22:08;99326.56;;;8.85;100.00
5595;BME280;1003;48.002;7.788;2023-05-14T01:24:36;99323.19;;;8.91;100.00
5595;BME280;1003;48.002;7.788;2023-05-14T01:27:23;99331.56;;;8.94;100.00
5595;BME280;1003;48.002;7.788;2023-05-14T01:30:02;99341.56;;;8.87;100.00
5595;BME280;1003;48.002;7.788;2023-05-14T01:32:34;99349.13;;;8.88;100.00
5595;BME280;1003;48.002;7.788;2023-05-14T01:35:03;99354.94;;;8.81;100.00
5595;BME280;1003;48.002;7.788;2023-05-14T01:37:32;99354.97;;;8.95;100.00
5595;BME280;1003;48.002;7.788;2023-05-14T01:39:59;99353.28;;;8.92;100.00
5595;BME280;1003;48.002;7.788;2023-05-14T01:42:28;99344.94;;;8.93;100.00
5595;BME280;1003;48.002;7.788;2023-05-14T01:44:56;99349.94;;;8.86;100.00
5595;BME280;1003;48.002;7.788;2023-05-14T01:47:23;99347.44;;;8.83;100.00
5595;BME280;1003;48.002;7.788;2023-05-14T01:49:50;99342.41;;;8.71;100.00
5595;BME280;1003;48.002;7.788;2023-05-14T01:52:17;99347.44;;;8.57;100.00
5595;BME280;1003;48.002;7.788;2023-05-14T01:54:47;99345.75;;;8.50;100.00
5595;BME280;1003;48.002;7.788;2023-05-14T01:57:14;99355.81;;;8.62;100.00
5595;BME280;1003;48.002;7.788;2023-05-14T01:59:41;99354.97;;;8.72;100.00
5595;BME280;1003;48.002;7.788;2023-05-14T02:02:08;99350.81;;;8.77;100.00
5595;BME280;1003;48.002;7.788;2023-05-14T02:04:35;99357.44;;;8.66;100.00
5595;BME280;1003;48.002;7.788;2023-05-14T02:07:02;99353.28;;;8.51;100.00
5595;BME280;1003;48.002;7.788;2023-05-14T02:09:29;99354.03;;;8.24;100.00
5595;BME280;1003;48.002;7.788;2023-05-14T02:11:58;99368.25;;;8.34;100.00
5595;BME280;1003;48.002;7.788;2023-05-14T02:14:25;99368.22;;;8.33;100.00
5595;BME280;1003;48.002;7.788;2023-05-14T02:16:52;99375.81;;;8.40;100.00
5595;BME280;1003;48.002;7.788;2023-05-14T02:19:19;99370.78;;;8.39;100.00
5595;BME280;1003;48.002;7.788;2023-05-14T02:21:47;99364.97;;;8.41;100.00
5595;BME280;1003;48.002;7.788;2023-05-14T02:24:14;99368.28;;;8.42;100.00
5595;BME280;1003;48.002;7.788;2023-05-14T02:26:41;99375.81;;;8.42;100.00
5595;BME280;1003;48.002;7.788;2023-05-14T02:29:10;99387.47;;;8.45;100.00
5595;BME280;1003;48.002;7.788;2023-05-14T02:31:37;99392.53;;;8.52;100.00
5595;BME280;1003;48.002;7.788;2023-05-14T02:34:05;99400.03;;;8.55;100.00
5595;BME280;1003;48.002;7.788;2023-05-14T02:36:32;99401.72;;;8.59;100.00
5595;BME280;1003;48.002;7.788;2023-05-14T02:38:59;99399.22;;;8.67;100.00
5595;BME280;1003;48.002;7.788;2023-05-14T02:41:26;99405.06;;;8.71;100.00
5595;BME280;1003;48.002;7.788;2023-05-14T02:43:53;99417.59;;;8.75;100.00
5595;BME280;1003;48.002;7.788;2023-05-14T02:46:22;99430.97;;;8.79;100.00
5595;BME280;1003;48.002;7.788;2023-05-14T02:48:49;99441.00;;;8.86;100.00
5595;BME280;1003;48.002;7.788;2023-05-14T02:51:18;99454.38;;;8.90;100.00
5595;BME280;1003;48.002;7.788;2023-05-14T02:53:45;99460.25;;;8.95;100.00
5595;BME280;1003;48.002;7.788;2023-05-14T02:56:12;99468.59;;;9.00;100.00
5595;BME280;1003;48.002;7.788;2023-05-14T02:58:39;99467.78;;;9.00;100.00
5595;BME280;1003;48.002;7.788;2023-05-14T03:01:07;99486.13;;;9.09;100.00
5595;BME280;1003;48.002;7.788;2023-05-14T03:03:36;99486.16;;;9.18;100.00
5595;BME280;1003;48.002;7.788;2023-05-14T03:06:04;99483.66;;;9.22;100.00
5595;BME280;1003;48.002;7.788;2023-05-14T03:08:31;99495.34;;;9.23;100.00
5595;BME280;1003;48.002;7.788;2023-05-14T03:10:58;99497.03;;;9.30;100.00
5595;BME280;1003;48.002;7.788;2023-05-14T03:13:25;99496.19;;;9.35;100.00
5595;BME280;1003;48.002;7.788;2023-05-14T03:15:52;99495.34;;;9.41;100.00
5595;BME280;1003;48.002;7.788;2023-05-14T03:18:21;99499.53;;;9.43;100.00
5595;BME280;1003;48.002;7.788;2023-05-14T03:20:49;99512.09;;;9.48;100.00
5595;BME280;1003;48.002;7.788;2023-05-14T03:23:16;99509.56;;;9.54;100.00
5595;BME280;1003;48.002;7.788;2023-05-14T03:25:44;99505.38;;;9.59;100.00
5595;BME280;1003;48.002;7.788;2023-05-14T03:28:11;99519.59;;;9.69;100.00
5595;BME280;1003;48.002;7.788;2023-05-14T03:30:38;99519.59;;;9.77;100.00
5595;BME280;1003;48.002;7.788;2023-05-14T03:33:05;99520.41;;;9.84;100.00
5595;BME280;1003;48.002;7.788;2023-05-14T03:35:32;99514.59;;;9.74;100.00
5595;BME280;1003;48.002;7.788;2023-05-14T03:38:00;99529.63;;;9.77;100.00
5595;BME280;1003;48.002;7.788;2023-05-14T03:40:28;99527.97;;;9.75;100.00
5595;BME280;1003;48.002;7.788;2023-05-14T03:42:55;99529.63;;;9.66;100.00
5595;BME280;1003;48.002;7.788;2023-05-14T03:45:24;99531.31;;;9.70;100.00
5595;BME280;1003;48.002;7.788;2023-05-14T03:47:53;99537.16;;;9.71;100.00
5595;BME280;1003;48.002;7.788;2023-05-14T03:50:20;99537.97;;;9.68;100.00
5595;BME280;1003;48.002;7.788;2023-05-14T03:52:50;99554.72;;;9.76;100.00
5595;BME280;1003;48.002;7.788;2023-05-14T03:55:18;99548.03;;;9.59;100.00
5595;BME280;1003;48.002;7.788;2023-05-14T03:57:47;99552.22;;;9.66;100.00
5595;BME280;1003;48.002;7.788;2023-05-14T04:00:15;99554.72;;;9.71;100.00
5595;BME280;1003;48.002;7.788;2023-05-14T04:02:42;99548.03;;;9.76;100.00
5595;BME280;1003;48.002;7.788;2023-05-14T04:05:09;99547.19;;;9.82;100.00
5595;BME280;1003;48.002;7.788;2023-05-14T04:07:36;99552.22;;;9.85;100.00
5595;BME280;1003;48.002;7.788;2023-05-14T04:10:04;99558.06;;;9.93;100.00
5595;BME280;1003;48.002;7.788;2023-05-14T04:12:32;99554.69;;;9.94;100.00
5595;BME280;1003;48.002;7.788;2023-05-14T04:15:00;99550.50;;;9.99;100.00
5595;BME280;1003;48.002;7.788;2023-05-14T04:17:27;99551.34;;;9.99;100.00
5595;BME280;1003;48.002;7.788;2023-05-14T04:19:54;99557.19;;;10.06;100.00
5595;BME280;1003;48.002;7.788;2023-05-14T04:22:21;99562.22;;;10.12;100.00
5595;BME280;1003;48.002;7.788;2023-05-14T04:24:48;99563.00;;;10.20;100.00
5595;BME280;1003;48.002;7.788;2023-05-14T04:27:19;99568.06;;;10.23;100.00
5595;BME280;1003;48.002;7.788;2023-05-14T04:29:48;99566.38;;;10.19;100.00
5595;BME280;1003;48.002;7.788;2023-05-14T04:32:15;99565.53;;;10.20;100.00
5595;BME280;1003;48.002;7.788;2023-05-14T04:34:43;99563.03;;;10.17;100.00
5595;BME280;1003;48.002;7.788;2023-05-14T04:37:11;99559.66;;;10.21;100.00
5595;BME280;1003;48.002;7.788;2023-05-14T04:39:38;99558.84;;;10.22;100.00
5595;BME280;1003;48.002;7.788;2023-05-14T04:42:06;99552.13;;;10.31;100.00
5595;BME280;1003;48.002;7.788;2023-05-14T04:44:34;99549.63;;;10.35;100.00
5595;BME280;1003;48.002;7.788;2023-05-14T04:47:04;99552.94;;;10.42;100.00
5595;BME280;1003;48.002;7.788;2023-05-14T04:49:31;99542.88;;;10.46;100.00
5595;BME280;1003;48.002;7.788;2023-05-14T04:51:59;99534.50;;;10.50;100.00
5595;BME280;1003;48.002;7.788;2023-05-14T04:54:27;99524.44;;;10.50;100.00
5595;BME280;1003;48.002;7.788;2023-05-14T04:56:54;99517.69;;;10.57;100.00
5595;BME280;1003;48.002;7.788;2023-05-14T04:59:21;99511.81;;;10.63;100.00
5595;BME280;1003;48.002;7.788;2023-05-14T05:01:48;99504.22;;;10.69;100.00
5595;BME280;1003;48.002;7.788;2023-05-14T05:04:17;99490.78;;;10.74;100.00
5595;BME280;1003;48.002;7.788;2023-05-14T05:06:44;99481.53;;;10.83;100.00
5595;BME280;1003;48.002;7.788;2023-05-14T05:09:12;99463.91;;;10.84;100.00
5595;BME280;1003;48.002;7.788;2023-05-14T05:11:39;99443.75;;;10.90;100.00
5595;BME280;1003;48.002;7.788;2023-05-14T05:14:06;99426.13;;;10.95;100.00
5595;BME280;1003;48.002;7.788;2023-05-14T05:16:33;99413.53;;;10.98;100.00
5595;BME280;1003;48.002;7.788;2023-05-14T05:19:01;99400.03;;;11.07;100.00
5595;BME280;1003;48.002;7.788;2023-05-14T05:21:29;99397.47;;;11.14;100.00
5595;BME280;1003;48.002;7.788;2023-05-14T05:23:57;99392.31;;;11.26;100.00
5595;BME280;1003;48.002;7.788;2023-05-14T05:26:24;99382.13;;;11.37;100.00
5595;BME280;1003;48.002;7.788;2023-05-14T05:28:52;99373.56;;;11.55;100.00
5595;BME280;1003;48.002;7.788;2023-05-14T05:31:19;99359.09;;;11.74;100.00
5595;BME280;1003;48.002;7.788;2023-05-14T05:33:46;99341.34;;;11.85;100.00
5595;BME280;1003;48.002;7.788;2023-05-14T05:36:14;99320.28;;;11.89;100.00
5595;BME280;1003;48.002;7.788;2023-05-14T05:38:42;99311.78;;;11.97;100.00
5595;BME280;1003;48.002;7.788;2023-05-14T05:41:09;99302.31;;;12.16;100.00
5595;BME280;1003;48.002;7.788;2023-05-14T05:43:36;99298.91;;;12.19;100.00
5595;BME280;1003;48.002;7.788;2023-05-14T05:46:04;99282.81;;;12.26;100.00
5595;BME280;1003;48.002;7.788;2023-05-14T05:48:31;99272.66;;;12.30;100.00
5595;BME280;1003;48.002;7.788;2023-05-14T05:50:58;99276.25;;;12.16;100.00
5595;BME280;1003;48.002;7.788;2023-05-14T05:53:25;99266.25;;;12.09;100.00
5595;BME280;1003;48.002;7.788;2023-05-14T05:55:53;99266.72;;;12.34;100.00
5595;BME280;1003;48.002;7.788;2023-05-14T05:58:20;99258.44;;;12.26;100.00
5595;BME280;1003;48.002;7.788;2023-05-14T06:00:47;99246.81;;;12.19;100.00
5595;BME280;1003;48.002;7.788;2023-05-14T06:03:14;99250.81;;;12.32;100.00
5595;BME280;1003;48.002;7.788;2023-05-14T06:05:41;99243.16;;;12.39;100.00
5595;BME280;1003;48.002;7.788;2023-05-14T06:08:08;99239.63;;;12.49;100.00
5595;BME280;1003;48.002;7.788;2023-05-14T06:10:36;99229.75;;;12.35;100.00
5595;BME280;1003;48.002;7.788;2023-05-14T06:13:04;99230.09;;;12.63;100.00
5595;BME280;1003;48.002;7.788;2023-05-14T06:15:31;99222.97;;;12.85;100.00
5595;BME280;1003;48.002;7.788;2023-05-14T06:17:58;99220.19;;;13.00;100.00
5595;BME280;1003;48.002;7.788;2023-05-14T06:20:25;99217.22;;;13.25;100.00
5595;BME280;1003;48.002;7.788;2023-05-14T06:22:52;99205.47;;;13.21;100.00
5595;BME280;1003;48.002;7.788;2023-05-14T06:25:19;99196.34;;;13.15;100.00
5595;BME280;1003;48.002;7.788;2023-05-14T06:27:46;99191.97;;;13.25;100.00
5595;BME280;1003;48.002;7.788;2023-05-14T06:30:15;99196.47;;;13.51;100.00
5595;BME280;1003;48.002;7.788;2023-05-14T06:32:42;99179.25;;;13.29;100.00
5595;BME280;1003;48.002;7.788;2023-05-14T06:35:09;99168.47;;;13.21;100.00
5595;BME280;1003;48.002;7.788;2023-05-14T06:37:36;99168.19;;;13.35;100.00
5595;BME280;1003;48.002;7.788;2023-05-14T06:40:05;99159.66;;;13.41;100.00
5595;BME280;1003;48.002;7.788;2023-05-14T06:42:32;99143.78;;;13.71;100.00
5595;BME280;1003;48.002;7.788;2023-05-14T06:44:59;99129.59;;;13.67;100.00
5595;BME280;1003;48.002;7.788;2023-05-14T06:47:28;99130.28;;;13.74;100.00
5595;BME280;1003;48.002;7.788;2023-05-14T06:49:56;99119.50;;;14.01;100.00
5595;BME280;1003;48.002;7.788;2023-05-14T06:52:23;99110.22;;;14.34;100.00
5595;BME280;1003;48.002;7.788;2023-05-14T06:54:50;99096.69;;;14.37;100.00
5595;BME280;1003;48.002;7.788;2023-05-14T06:57:17;99079.81;;;14.36;100.00
5595;BME280;1003;48.002;7.788;2023-05-14T06:59:44;99073.66;;;14.46;100.00
5595;BME280;1003;48.002;7.788;2023-05-14T07:02:11;99053.31;;;14.51;100.00
5595;BME280;1003;48.002;7.788;2023-05-14T07:04:40;99043.91;;;14.56;100.00
5595;BME280;1003;48.002;7.788;2023-05-14T07:07:07;99034.41;;;14.64;100.00
5595;BME280;1003;48.002;7.788;2023-05-14T07:09:35;99048.63;;;14.37;100.00
5595;BME280;1003;48.002;7.788;2023-05-14T07:12:02;99067.41;;;14.59;100.00
5595;BME280;1003;48.002;7.788;2023-05-14T07:14:30;99021.53;;;14.72;100.00
5595;BME280;1003;48.002;7.788;2023-05-14T07:16:57;99017.41;;;14.95;100.00
5595;BME280;1003;48.002;7.788;2023-05-14T07:19:24;99019.00;;;15.26;100.00
5595;BME280;1003;48.002;7.788;2023-05-14T07:21:55;98997.97;;;14.98;100.00
5595;BME280;1003;48.002;7.788;2023-05-14T07:24:22;99001.28;;;15.26;100.00
5595;BME280;1003;48.002;7.788;2023-05-14T07:26:49;98989.47;;;15.52;100.00
5595;BME280;1003;48.002;7.788;2023-05-14T07:29:16;98980.53;;;15.68;100.00
5595;BME280;1003;48.002;7.788;2023-05-14T07:31:43;98973.09;;;15.62;100.00
5595;BME280;1003;48.002;7.788;2023-05-14T07:34:10;98957.19;;;15.83;100.00
5595;BME280;1003;48.002;7.788;2023-05-14T07:36:38;98934.53;;;16.02;100.00
5595;BME280;1003;48.002;7.788;2023-05-14T07:39:07;98924.19;;;16.30;100.00
5595;BME280;1003;48.002;7.788;2023-05-14T07:41:34;98915.25;;;16.21;100.00
5595;BME280;1003;48.002;7.788;2023-05-14T07:44:01;98892.72;;;16.58;100.00
5595;BME280;1003;48.002;7.788;2023-05-14T07:46:28;98880.84;;;16.58;100.00
5595;BME280;1003;48.002;7.788;2023-05-14T07:48:55;98873.25;;;16.58;100.00
5595;BME280;1003;48.002;7.788;2023-05-14T07:51:22;98876.72;;;16.12;100.00
5595;BME280;1003;48.002;7.788;2023-05-14T07:53:49;98872.94;;;16.22;100.00
5595;BME280;1003;48.002;7.788;2023-05-14T07:56:18;98886.28;;;16.27;100.00
5595;BME280;1003;48.002;7.788;2023-05-14T07:58:45;98881.09;;;16.74;100.00
5595;BME280;1003;48.002;7.788;2023-05-14T08:01:12;98884.16;;;17.02;100.00
5595;BME280;1003;48.002;7.788;2023-05-14T08:03:39;98863.88;;;17.81;100.00
5595;BME280;1003;48.002;7.788;2023-05-14T08:06:06;98860.69;;;18.32;100.00
5595;BME280;1003;48.002;7.788;2023-05-14T08:08:33;98840.88;;;17.84;100.00
5595;BME280;1003;48.002;7.788;2023-05-14T08:11:01;98844.88;;;18.26;100.00
5595;BME280;1003;48.002;7.788;2023-05-14T08:13:30;98834.22;;;18.18;100.00
5595;BME280;1003;48.002;7.788;2023-05-14T08:15:57;98832.84;;;17.93;100.00
5595;BME280;1003;48.002;7.788;2023-05-14T08:18:24;98835.03;;;17.82;100.00
5595;BME280;1003;48.002;7.788;2023-05-14T08:20:51;98837.19;;;17.52;100.00
5595;BME280;1003;48.002;7.788;2023-05-14T08:23:19;98831.28;;;17.51;100.00
5595;BME280;1003;48.002;7.788;2023-05-14T08:25:46;98846.03;;;17.43;100.00
5595;BME280;1003;48.002;7.788;2023-05-14T08:28:13;98849.34;;;17.45;100.00
5595;BME280;1003;48.002;7.788;2023-05-14T08:30:41;98846.59;;;17.69;100.00
5595;BME280;1003;48.002;7.788;2023-05-14T08:33:08;98832.56;;;17.41;100.00
5595;BME280;1003;48.002;7.788;2023-05-14T08:35:35;98842.19;;;17.93;100.00
5595;BME280;1003;48.002;7.788;2023-05-14T08:38:02;98805.41;;;18.00;100.00
5595;BME280;1003;48.002;7.788;2023-05-14T08:40:29;98807.97;;;18.17;100.00
5595;BME280;1003;48.002;7.788;2023-05-14T08:42:57;98797.78;;;18.00;100.00
5595;BME280;1003;48.002;7.788;2023-05-14T08:45:29;98797.78;;;17.81;100.00
5595;BME280;1003;48.002;7.788;2023-05-14T08:48:02;98814.22;;;17.74;100.00
5595;BME280;1003;48.002;7.788;2023-05-14T08:50:33;98808.59;;;18.40;100.00
5595;BME280;1003;48.002;7.788;2023-05-14T08:53:01;98793.28;;;18.76;100.00
5595;BME280;1003;48.002;7.788;2023-05-14T08:55:30;98782.97;;;18.79;100.00
5595;BME280;1003;48.002;7.788;2023-05-14T08:57:58;98761.91;;;18.58;100.00
5595;BME280;1003;48.002;7.788;2023-05-14T09:00:26;98761.69;;;19.13;100.00
5595;BME280;1003;48.002;7.788;2023-05-14T09:02:54;98750.63;;;18.46;100.00
5595;BME280;1003;48.002;7.788;2023-05-14T09:05:23;98753.28;;;18.43;100.00
5595;BME280;1003;48.002;7.788;2023-05-14T09:07:50;98794.31;;;18.72;100.00
5595;BME280;1003;48.002;7.788;2023-05-14T09:10:18;98746.34;;;19.46;100.00
5595;BME280;1003;48.002;7.788;2023-05-14T09:12:45;98721.28;;;19.38;100.00
5595;BME280;1003;48.002;7.788;2023-05-14T09:15:12;98746.81;;;18.88;100.00
5595;BME280;1003;48.002;7.788;2023-05-14T09:17:39;98757.31;;;19.15;100.00
5595;BME280;1003;48.002;7.788;2023-05-14T09:20:09;98717.25;;;19.66;100.00
5595;BME280;1003;48.002;7.788;2023-05-14T09:22:39;98704.84;;;19.76;100.00
5595;BME280;1003;48.002;7.788;2023-05-14T09:25:09;98680.91;;;19.31;100.00
5595;BME280;1003;48.002;7.788;2023-05-14T09:27:38;98699.88;;;19.41;100.00
5595;BME280;1003;48.002;7.788;2023-05-14T09:30:08;98708.19;;;19.45;100.00
5595;BME280;1003;48.002;7.788;2023-05-14T09:32:38;98706.41;;;19.62;100.00
5595;BME280;1003;48.002;7.788;2023-05-14T09:35:14;98703.81;;;19.94;100.00
5595;BME280;1003;48.002;7.788;2023-05-14T09:37:46;98676.91;;;20.63;100.00
5595;BME280;1003;48.002;7.788;2023-05-14T09:40:15;98645.97;;;20.67;100.00
5595;BME280;1003;48.002;7.788;2023-05-14T09:42:42;98630.47;;;20.70;100.00
5595;BME280;1003;48.002;7.788;2023-05-14T09:45:10;98624.78;;;19.78;100.00
5595;BME280;1003;48.002;7.788;2023-05-14T09:47:38;98635.94;;;19.61;100.00
5595;BME280;1003;48.002;7.788;2023-05-14T09:50:06;98640.47;;;19.86;100.00
5595;BME280;1003;48.002;7.788;2023-05-14T09:52:34;98637.56;;;19.62;100.00
5595;BME280;1003;48.002;7.788;2023-05-14T09:55:03;98636.34;;;19.70;100.00
5595;BME280;1003;48.002;7.788;2023-05-14T09:57:31;98653.69;;;19.93;100.00
5595;BME280;1003;48.002;7.788;2023-05-14T09:59:58;98635.13;;;20.50;100.00
5595;BME280;1003;48.002;7.788;2023-05-14T10:02:29;98617.84;;;20.10;100.00
5595;BME280;1003;48.002;7.788;2023-05-14T10:05:04;98624.09;;;19.45;100.00
5595;BME280;1003;48.002;7.788;2023-05-14T10:07:38;98617.84;;;20.10;100.00
5595;BME280;1003;48.002;7.788;2023-05-14T10:10:16;98621.63;;;19.89;100.00
5595;BME280;1003;48.002;7.788;2023-05-14T10:12:50;98610.75;;;20.30;100.00
5595;BME280;1003;48.002;7.788;2023-05-14T10:15:23;98586.50;;;20.37;100.00
5595;BME280;1003;48.002;7.788;2023-05-14T10:18:00;98600.28;;;20.63;100.00
5595;BME280;1003;48.002;7.788;2023-05-14T10:20:30;98558.00;;;21.13;100.00
5595;BME280;1003;48.002;7.788;2023-05-14T10:22:58;98560.81;;;20.40;100.00
5595;BME280;1003;48.002;7.788;2023-05-14T10:25:27;98568.09;;;20.60;100.00
5595;BME280;1003;48.002;7.788;2023-05-14T10:27:54;98559.69;;;20.73;100.00
5595;BME280;1003;48.002;7.788;2023-05-14T10:30:22;98551.66;;;21.06;100.00
5595;BME280;1003;48.002;7.788;2023-05-14T10:33:06;98554.06;;;21.48;100.00
5595;BME280;1003;48.002;7.788;2023-05-14T10:35:54;98553.28;;;21.07;100.00
5595;BME280;1003;48.002;7.788;2023-05-14T10:38:24;98540.66;;;21.58;100.00
5595;BME280;1003;48.002;7.788;2023-05-14T10:40:56;98533.41;;;21.77;100.00
5595;BME280;1003;48.002;7.788;2023-05-14T10:43:27;98549.28;;;21.69;100.00
5595;BME280;1003;48.002;7.788;2023-05-14T10:45:56;98551.75;;;20.77;100.00
5595;BME280;1003;48.002;7.788;2023-05-14T10:48:25;98558.59;;;21.04;100.00
5595;BME280;1003;48.002;7.788;2023-05-14T10:50:53;98567.59;;;20.82;100.00
5595;BME280;1003;48.002;7.788;2023-05-14T10:53:32;98565.72;;;20.57;100.00
5595;BME280;1003;48.002;7.788;2023-05-14T10:56:05;98569.34;;;20.10;100.00
5595;BME280;1003;48.002;7.788;2023-05-14T10:58:36;98554.25;;;20.36;100.00
5595;BME280;1003;48.002;7.788;2023-05-14T11:01:05;98530.97;;;20.69;100.00
5595;BME280;1003;48.002;7.788;2023-05-14T11:03:39;98529.88;;;20.73;100.00
5595;BME280;1003;48.002;7.788;2023-05-14T11:06:09;98559.44;;;20.20;100.00
5595;BME280;1003;48.002;7.788;2023-05-14T11:08:37;98557.34;;;20.27;100.00
5595;BME280;1003;48.002;7.788;2023-05-14T11:11:07;98560.69;;;20.70;100.00
5595;BME280;1003;48.002;7.788;2023-05-14T11:13:34;98566.06;;;20.65;100.00
5595;BME280;1003;48.002;7.788;2023-05-14T11:16:02;98590.41;;;20.85;100.00
5595;BME280;1003;48.002;7.788;2023-05-14T11:18:31;98622.19;;;21.49;100.00
5595;BME280;1003;48.002;7.788;2023-05-14T11:20:59;98701.28;;;21.92;100.00
5595;BME280;1003;48.002;7.788;2023-05-14T11:23:27;98765.28;;;21.78;100.00
5595;BME280;1003;48.002;7.788;2023-05-14T11:25:55;98773.09;;;21.62;100.00
5595;BME280;1003;48.002;7.788;2023-05-14T11:28:25;98748.00;;;22.09;100.00
5595;BME280;1003;48.002;7.788;2023-05-14T11:30:53;98765.59;;;21.73;100.00
5595;BME280;1003;48.002;7.788;2023-05-14T11:33:20;98815.16;;;21.44;100.00
5595;BME280;1003;48.002;7.788;2023-05-14T11:35:47;98768.13;;;21.04;100.00
5595;BME280;1003;48.002;7.788;2023-05-14T11:38:15;98768.50;;;21.12;100.00
5595;BME280;1003;48.002;7.788;2023-05-14T11:40:50;98729.91;;;20.74;100.00
5595;BME280;1003;48.002;7.788;2023-05-14T11:43:19;98717.50;;;20.37;100.00
5595;BME280;1003;48.002;7.788;2023-05-14T11:45:53;98649.38;;;20.09;100.00
5595;BME280;1003;48.002;7.788;2023-05-14T11:48:22;98538.34;;;18.17;100.00
5595;BME280;1003;48.002;7.788;2023-05-14T11:50:51;98542.47;;;17.16;100.00
5595;BME280;1003;48.002;7.788;2023-05-14T11:53:18;98576.13;;;16.64;100.00
5595;BME280;1003;48.002;7.788;2023-05-14T11:55:46;98600.97;;;16.37;100.00
5595;BME280;1003;48.002;7.788;2023-05-14T11:58:13;98620.00;;;16.47;100.00
5595;BME280;1003;48.002;7.788;2023-05-14T12:00:43;98612.56;;;16.82;100.00
5595;BME280;1003;48.002;7.788;2023-05-14T12:03:12;98610.72;;;17.41;100.00
5595;BME280;1003;48.002;7.788;2023-05-14T12:05:39;98590.28;;;17.61;100.00
5595;BME280;1003;48.002;7.788;2023-05-14T12:08:19;98572.38;;;17.81;100.00
5595;BME280;1003;48.002;7.788;2023-05-14T12:10:46;98559.78;;;17.96;100.00
5595;BME280;1003;48.002;7.788;2023-05-14T12:13:15;98553.84;;;18.46;100.00
5595;BME280;1003;48.002;7.788;2023-05-14T12:15:46;98546.06;;;19.12;100.00
5595;BME280;1003;48.002;7.788;2023-05-14T12:18:16;98518.41;;;19.20;100.00
5595;BME280;1003;48.002;7.788;2023-05-14T12:20:46;98492.19;;;19.34;100.00
5595;BME280;1003;48.002;7.788;2023-05-14T12:23:14;98467.50;;;19.64;100.00
5595;BME280;1003;48.002;7.788;2023-05-14T12:25:49;98437.59;;;20.24;100.00
5595;BME280;1003;48.002;7.788;2023-05-14T12:28:17;98442.56;;;20.39;100.00
5595;BME280;1003;48.002;7.788;2023-05-14T12:30:45;98450.84;;;20.57;100.00
5595;BME280;1003;48.002;7.788;2023-05-14T12:33:12;98492.50;;;20.58;100.00
5595;BME280;1003;48.002;7.788;2023-05-14T12:35:41;98546.66;;;20.77;100.00
5595;BME280;1003;48.002;7.788;2023-05-14T12:38:08;98572.78;;;20.81;100.00
5595;BME280;1003;48.002;7.788;2023-05-14T12:40:35;98578.84;;;21.07;100.00
5595;BME280;1003;48.002;7.788;2023-05-14T12:43:02;98609.66;;;21.32;100.00
5595;BME280;1003;48.002;7.788;2023-05-14T12:45:29;98649.94;;;21.68;100.00
5595;BME280;1003;48.002;7.788;2023-05-14T12:47:57;98693.44;;;21.68;100.00
5595;BME280;1003;48.002;7.788;2023-05-14T12:50:24;98735.47;;;21.37;100.00
5595;BME280;1003;48.002;7.788;2023-05-14T12:52:52;98755.06;;;20.35;100.00
5595;BME280;1003;48.002;7.788;2023-05-14T12:55:20;98738.31;;;20.15;100.00
5595;BME280;1003;48.002;7.788;2023-05-14T12:57:49;98699.81;;;19.74;100.00
5595;BME280;1003;48.002;7.788;2023-05-14T13:00:17;98648.59;;;19.31;100.00
5595;BME280;1003;48.002;7.788;2023-05-14T13:02:44;98633.06;;;18.55;100.00
5595;BME280;1003;48.002;7.788;2023-05-14T13:05:11;98613.22;;;18.29;100.00
5595;BME280;1003;48.002;7.788;2023-05-14T13:07:39;98606.75;;;18.06;100.00
5595;BME280;1003;48.002;7.788;2023-05-14T13:10:08;98601.97;;;18.00;100.00
5595;BME280;1003;48.002;7.788;2023-05-14T13:12:36;98572.31;;;17.64;100.00
5595;BME280;1003;48.002;7.788;2023-05-14T13:15:04;98475.06;;;16.74;100.00
5595;BME280;1003;48.002;7.788;2023-05-14T13:17:31;98497.94;;;16.35;100.00
5595;BME280;1003;48.002;7.788;2023-05-14T13:19:58;98505.97;;;16.25;100.00
5595;BME280;1003;48.002;7.788;2023-05-14T13:22:25;98520.25;;;16.47;100.00